Latest Weather Observations for Canterbury

IDN60801

Issued at 9:03 pm EDT Sunday 25 January 2015 (issued every 30 minutes, with the page automatically refreshed every 10 minutes)

About weather observations | Map of weather stations | Latest weather observations for NSW | Other Formats
Station Details ID: 066194 Name: CANTERBURY RACECOURSE AWS Lat: -33.91 Lon: 151.11 Height: 3.0 m
Data from the previous 72 hours. | See also: Recent months at Canterbury
Date/Time
EDT
Temp
°C
App
Temp
°C
Dew
Point
Rel
Hum
%
Delta-T
°C
Wind Press
QNH
hPa
Press
MSL
hPa
Rain
since 9 am
mm
Dir
 
Spd
km/h
Gust
km/h
Spd
kts
Gust
kts
25/08:35pm 22.5 20.1 18.3 77 2.6 SSE 28 46 15 25 - - 0.0
25/08:30pm 22.5 19.7 18.1 76 2.7 SSE 30 46 16 25 - - 0.0
25/08:00pm 22.7 19.9 18.3 76 2.8 SSE 30 50 16 27 - - 0.0
25/07:30pm 23.3 20.2 18.4 74 3.1 SSE 32 54 17 29 - - 0.0
25/07:05pm 25.4 22.0 17.8 62 4.8 SSE 32 52 17 28 - - 0.0
25/07:00pm 26.6 24.6 17.4 57 5.8 SSE 24 44 13 24 - - 0.0
25/06:30pm 31.3 30.8 16.8 41 9.1 E 15 20 8 11 - - 0.0
25/06:00pm 31.5 31.3 16.6 40 9.4 - 13 19 7 10 - - 0.0
25/05:30pm 31.5 30.7 17.0 41 9.2 ENE 17 24 9 13 - - 0.0
25/05:00pm 31.5 30.4 17.4 43 9.0 ENE 19 26 10 14 - - 0.0
25/04:30pm 31.5 30.4 17.8 44 8.8 ENE 20 30 11 16 - - 0.0
25/04:00pm 32.9 32.1 17.9 41 9.7 ENE 19 26 10 14 - - 0.0
25/03:30pm 35.1 34.6 15.9 31 12.1 W 13 22 7 12 - - 0.0
25/03:00pm 35.0 34.1 16.8 34 11.6 WSW 17 26 9 14 - - 0.0
25/02:30pm 35.0 33.7 15.8 31 12.1 WNW 17 33 9 18 - - 0.0
25/02:00pm 34.7 34.8 17.4 35 11.1 W 13 26 7 14 - - 0.0
25/01:30pm 34.1 35.8 18.6 40 10.1 WNW 7 15 4 8 - - 0.0
25/01:00pm 33.1 33.5 17.3 39 10.1 W 11 19 6 10 - - 0.0
25/12:30pm 32.5 32.8 17.9 41 9.4 W 13 24 7 13 - - 0.0
25/12:00pm 31.5 32.4 18.5 46 8.4 - 11 24 6 13 - - 0.0
25/11:30am 30.5 30.9 18.2 47 7.9 W 13 24 7 13 - - 0.0
25/11:00am 29.6 30.9 18.4 51 7.2 WSW 9 20 5 11 - - 0.0
25/10:30am 28.9 30.7 19.5 57 6.1 WNW 9 19 5 10 - - 0.0
25/10:00am 27.1 29.2 18.9 61 5.3 W 6 11 3 6 - - 0.0
25/09:30am 26.0 28.1 19.4 67 4.3 N 7 13 4 7 - - 0.0
25/09:00am 24.6 26.9 19.9 75 3.0 WNW 7 11 4 6 - - 0.8
25/08:30am 23.2 25.7 19.8 81 2.2 WNW 6 9 3 5 - - 0.8
25/08:00am 22.1 25.2 19.6 86 1.6 NW 2 6 1 3 - - 0.8
25/07:30am 21.5 24.8 19.2 87 1.5 CALM 0 0 0 0 - - 0.8
25/07:00am 21.1 24.6 19.6 91 1.0 CALM 0 0 0 0 - - 0.8
25/06:30am 20.0 23.0 18.5 91 0.9 CALM 0 0 0 0 - - 0.8
25/06:00am 20.3 23.5 18.8 91 0.9 CALM 0 0 0 0 - - 0.8
25/05:30am 20.5 23.4 19.0 91 0.9 W 2 7 1 4 - - 0.8
25/05:00am 20.5 23.5 19.2 92 0.8 WNW 2 7 1 4 - - 0.8
25/04:30am 20.2 23.1 18.3 89 1.2 CALM 0 0 0 0 - - 0.8
25/04:00am 20.8 23.9 18.7 88 1.3 CALM 0 0 0 0 - - 0.8
25/03:30am 21.0 23.8 18.9 88 1.3 WNW 2 9 1 5 - - 0.8
25/03:00am 21.2 24.2 19.3 89 1.2 WNW 2 6 1 3 - - 0.8
25/02:30am 21.5 23.7 19.6 89 1.2 NW 7 9 4 5 - - 0.8
25/02:00am 21.7 24.4 19.4 87 1.5 NW 4 7 2 4 - - 0.8
25/01:30am 22.1 24.3 19.5 85 1.7 WNW 7 9 4 5 - - 0.8
25/01:00am 22.8 25.2 20.9 89 1.2 NW 9 11 5 6 - - 0.6
25/12:30am 22.9 25.3 20.8 88 1.4 NNW 9 13 5 7 - - 0.6
25/12:00am 22.8 25.2 20.9 89 1.2 - 9 15 5 8 - - 0.6
 
Date/Time
EDT
Temp
°C
App
Temp
°C
Dew
Point
Rel
Hum
%
Delta-T
°C
Wind Press
QNH
hPa
Press
MSL
hPa
Rain
since 9 am
mm
Dir
 
Spd
km/h
Gust
km/h
Spd
kts
Gust
kts
24/11:30pm 22.7 24.8 21.0 90 1.1 NNE 11 19 6 10 - - 0.6
24/11:00pm 22.5 24.8 19.9 85 1.7 NE 7 11 4 6 - - 0.4
24/10:30pm 24.2 25.9 19.3 74 3.1 NW 9 15 5 8 - - 0.0
24/10:00pm 24.7 26.6 19.8 74 3.2 N 9 15 5 8 - - 0.0
24/09:30pm 24.8 26.8 19.2 71 3.6 NNE 7 11 4 6 - - 0.0
24/09:00pm 25.2 26.1 19.3 70 3.8 NNE 13 19 7 10 - - 0.0
24/08:30pm 25.2 26.4 19.1 69 3.9 NNE 11 15 6 8 - - 0.0
24/08:00pm 25.3 25.5 19.4 70 3.8 N 17 28 9 15 - - 0.0
24/07:30pm 25.3 25.9 19.4 70 3.8 NE 15 24 8 13 - - 0.0
24/07:00pm 25.6 25.6 19.0 67 4.2 NE 17 30 9 16 - - 0.0
24/06:30pm 25.8 24.7 18.7 65 4.5 NE 22 33 12 18 - - 0.0
24/06:00pm 26.1 24.7 18.0 61 5.1 NE 22 35 12 19 - - 0.0
24/05:30pm 27.3 26.4 19.1 61 5.3 ENE 22 35 12 19 - - 0.0
24/05:00pm 26.9 25.2 18.2 59 5.5 ENE 24 35 13 19 - - 0.0
24/04:30pm 27.6 25.9 17.2 53 6.5 NE 22 37 12 20 - - 0.0
24/04:00pm 28.4 26.1 17.6 52 6.8 ENE 26 37 14 20 - - 0.0
24/03:30pm 29.3 27.7 18.4 51 7.0 ENE 24 39 13 21 - - 0.0
24/03:00pm 29.5 27.3 18.6 52 7.0 ENE 28 37 15 20 - - 0.0
24/02:30pm 29.4 27.0 18.2 51 7.2 ENE 28 39 15 21 - - 0.0
24/02:00pm 29.5 28.8 18.6 52 7.0 ENE 20 28 11 15 - - 0.0
24/01:30pm 29.4 27.6 17.9 50 7.3 ENE 24 33 13 18 - - 0.0
24/01:00pm 29.6 27.9 18.1 50 7.4 E 24 33 13 18 - - 0.0
24/12:30pm 30.2 30.5 19.6 53 6.9 ENE 17 24 9 13 - - 0.0
24/12:00pm 29.9 30.2 19.6 54 6.7 ENE 17 24 9 13 - - 0.0
24/11:30am 29.4 31.3 20.5 58 5.9 ENE 11 17 6 9 - - 0.0
24/11:00am 28.6 29.9 20.1 60 5.6 ENE 13 24 7 13 - - 0.0
24/10:30am 28.1 29.8 20.1 62 5.2 NE 11 19 6 10 - - 0.0
24/10:00am 27.7 29.1 20.3 64 4.9 ENE 13 19 7 10 - - 0.0
24/09:30am 26.6 28.8 20.4 69 4.1 N 9 15 5 8 - - 0.0
24/09:00am 25.5 26.8 19.4 69 3.9 NE 11 15 6 8 - - 0.0
24/08:30am 24.7 26.5 19.5 73 3.3 NNE 9 15 5 8 - - 0.0
24/08:00am 24.0 25.8 19.5 76 2.9 N 9 15 5 8 - - 0.0
24/07:30am 23.3 25.2 19.7 80 2.3 NNW 9 13 5 7 - - 0.0
24/07:00am 22.6 25.5 19.8 84 1.8 NNW 4 7 2 4 - - 0.0
24/06:30am 21.9 24.6 19.5 86 1.5 NE 4 7 2 4 - - 0.0
24/06:00am 21.8 23.9 19.4 86 1.5 ENE 7 11 4 6 - - 0.0
24/05:30am 21.8 24.9 19.4 86 1.5 NNE 2 7 1 4 - - 0.0
24/05:00am 21.6 25.0 19.3 87 1.5 CALM 0 0 0 0 - - 0.0
24/04:30am 22.1 25.2 19.5 85 1.7 E 2 7 1 4 - - 0.0
24/04:00am 22.4 25.3 19.8 85 1.7 NE 4 7 2 4 - - 0.0
24/03:30am 22.7 25.1 19.7 83 1.9 N 6 11 3 6 - - 0.0
24/03:00am 22.9 24.4 19.7 82 2.1 NNE 11 17 6 9 - - 0.0
24/02:30am 23.0 24.9 19.8 82 2.1 NE 9 13 5 7 - - 0.0
24/02:00am 23.1 25.0 19.7 81 2.2 NE 9 15 5 8 - - 0.0
24/01:30am 23.2 25.0 19.6 80 2.3 ENE 9 15 5 8 - - 0.0
24/01:00am 23.6 25.4 19.5 78 2.6 ENE 9 13 5 7 - - 0.0
24/12:30am 23.9 26.1 19.6 77 2.8 NE 7 13 4 7 - - 0.0
24/12:00am 24.1 25.9 19.6 76 2.9 ENE 9 17 5 9 - - 0.0
 
Date/Time
EDT
Temp
°C
App
Temp
°C
Dew
Point
Rel
Hum
%
Delta-T
°C
Wind Press
QNH
hPa
Press
MSL
hPa
Rain
since 9 am
mm
Dir
 
Spd
km/h
Gust
km/h
Spd
kts
Gust
kts
23/11:30pm 24.4 26.8 19.7 75 3.0 ENE 6 11 3 6 - - 0.0
23/11:00pm 24.4 26.6 19.7 75 3.0 NNE 7 9 4 5 - - 0.0
23/10:30pm 24.4 26.3 19.7 75 3.0 NNE 9 17 5 9 - - 0.0
23/10:00pm 24.6 26.1 19.7 74 3.2 NE 11 17 6 9 - - 0.0
23/09:30pm 24.6 26.1 19.7 74 3.2 NNE 11 17 6 9 - - 0.0
23/09:00pm 24.7 24.7 19.8 74 3.2 NNE 19 28 10 15 - - 0.0
23/08:30pm 24.8 24.7 19.6 73 3.3 NNE 19 28 10 15 - - 0.0
23/08:00pm 25.0 24.7 19.6 72 3.5 NNE 20 32 11 17 - - 0.0
23/07:30pm 25.1 25.0 19.5 71 3.6 NE 19 32 10 17 - - 0.0
23/07:00pm 25.4 24.6 19.3 69 3.9 NE 22 33 12 18 - - 0.0
23/06:30pm 26.1 25.6 19.2 65 4.4 NE 20 32 11 17 - - 0.0
23/06:00pm 27.3 26.2 19.4 62 5.1 ENE 24 37 13 20 - - 0.0
23/05:30pm 28.4 27.9 19.9 60 5.6 NE 22 37 12 20 - - 0.0
23/05:00pm 28.2 27.3 19.1 57 5.9 NE 22 39 12 21 - - 0.0
23/04:30pm 28.1 25.8 19.3 58 5.7 ENE 30 43 16 23 - - 0.0
23/04:00pm 28.7 27.3 19.6 58 5.9 ENE 26 35 14 19 - - 0.0
23/03:30pm 28.8 28.1 20.3 60 5.6 NE 24 33 13 18 - - 0.0
23/03:00pm 29.1 29.2 20.3 59 5.8 NE 20 30 11 16 - - 0.0
23/02:30pm 29.2 28.6 20.4 59 5.8 ENE 24 35 13 19 - - 0.0
23/02:00pm 29.1 29.0 20.0 58 6.0 ENE 20 32 11 17 - - 0.0
23/01:30pm 29.9 30.5 21.3 60 5.8 ENE 20 35 11 19 - - 0.0
23/01:00pm 28.8 28.6 20.5 61 5.5 ENE 22 33 12 18 - - 0.0
23/12:30pm 28.5 28.7 20.2 60 5.5 ENE 19 28 10 15 - - 0.0
23/12:00pm 28.6 29.6 21.1 64 5.0 ENE 17 24 9 13 - - 0.0
23/11:30am 27.8 29.3 19.8 61 5.2 NE 11 20 6 11 - - 0.0
23/11:00am 27.9 29.9 19.9 61 5.2 N 9 19 5 10 - - 0.0
23/10:30am 27.6 29.9 19.9 63 5.0 NE 7 11 4 6 - - 0.0
23/10:00am 26.0 27.5 18.9 65 4.5 N 9 15 5 8 - - 0.0
23/09:30am 25.7 26.8 18.9 66 4.3 N 11 17 6 9 - - 0.0
23/09:00am 25.3 25.9 18.7 67 4.2 NNE 13 20 7 11 - - 0.0
23/08:30am 24.8 25.8 18.7 69 3.9 N 11 17 6 9 - - 0.0
23/08:00am 24.2 25.6 19.5 75 3.0 N 11 15 6 8 - - 0.0
23/07:30am 23.4 25.2 19.5 79 2.5 NNE 9 15 5 8 - - 0.0
23/07:00am 22.0 25.2 19.7 87 1.5 NNE 2 7 1 4 - - 0.0
23/06:30am 21.5 24.6 19.6 89 1.2 E 2 7 1 4 - - 0.0
23/06:00am 21.2 24.6 19.3 89 1.2 CALM 0 0 0 0 - - 0.0
23/05:30am 21.3 24.6 19.2 88 1.3 CALM 0 0 0 0 - - 0.0
23/05:00am 21.6 25.1 19.5 88 1.3 CALM 0 0 0 0 - - 0.0
23/04:30am 21.4 24.7 19.0 86 1.5 CALM 0 0 0 0 - - 0.0
23/04:00am 22.0 24.7 19.4 85 1.7 N 4 7 2 4 - - 0.0
23/03:30am 22.5 24.8 19.5 83 1.9 NNW 6 11 3 6 - - 0.0
23/03:00am 22.8 25.1 19.8 83 1.9 NNW 7 11 4 6 - - 0.0
23/02:30am 22.9 25.2 19.9 83 1.9 NNW 7 9 4 5 - - 0.0
23/02:00am 23.1 25.1 19.9 82 2.1 N 9 15 5 8 - - 0.0
23/01:30am 22.7 25.7 20.0 85 1.7 NNE 4 13 2 7 - - 0.0
23/01:00am 22.9 25.4 19.9 83 1.9 NNE 6 11 3 6 - - 0.0
23/12:30am 23.0 25.0 20.0 83 1.9 NE 9 15 5 8 - - 0.0
23/12:00am 22.9 25.1 19.7 82 2.1 NNE 7 13 4 7 - - 0.0
 
Date/Time
EDT
Temp
°C
App
Temp
°C
Dew
Point
Rel
Hum
%
Delta-T
°C
Wind Press
QNH
hPa
Press
MSL
hPa
Rain
since 9 am
mm
Dir
 
Spd
km/h
Gust
km/h
Spd
kts
Gust
kts
22/11:30pm 22.9 25.1 19.7 82 2.1 NE 7 11 4 6 - - 0.0
22/11:00pm 22.9 25.1 19.5 81 2.2 NE 7 13 4 7 - - 0.0
22/10:30pm 23.1 24.5 19.5 80 2.3 NNE 11 17 6 9 - - 0.0
22/10:00pm 23.3 24.6 19.2 78 2.6 NNE 11 15 6 8 - - 0.0
22/09:30pm 23.3 24.6 19.2 78 2.6 NE 11 17 6 9 - - 0.0

Other Formats:

Comma delimited format used in spreadsheet applications
http://www.bom.gov.au/fwo/IDN60801/IDN60801.94766.axf

JavaScript Object Notation format (JSON) in row-major order
http://www.bom.gov.au/fwo/IDN60801/IDN60801.94766.json